sensor_id;sensor_type;location;lat;lon;timestamp;P1;P2;P0
72031;PMS5003;49185;42.320;23.198;2023-04-03T00:01:15;10.50;8.00;4.75
72031;PMS5003;49185;42.320;23.198;2023-04-03T00:03:41;6.00;5.00;3.00
72031;PMS5003;49185;42.320;23.198;2023-04-03T00:06:07;4.00;4.00;2.50
72031;PMS5003;49185;42.320;23.198;2023-04-03T00:08:34;4.00;4.00;2.00
72031;PMS5003;49185;42.320;23.198;2023-04-03T00:11:00;3.00;3.00;1.00
72031;PMS5003;49185;42.320;23.198;2023-04-03T00:13:26;2.25;2.25;0.00
72031;PMS5003;49185;42.320;23.198;2023-04-03T00:15:52;2.00;2.00;0.00
72031;PMS5003;49185;42.320;23.198;2023-04-03T00:18:18;1.50;1.50;0.00
72031;PMS5003;49185;42.320;23.198;2023-04-03T00:20:43;3.67;3.67;0.00
72031;PMS5003;49185;42.320;23.198;2023-04-03T00:23:09;4.00;4.00;0.00
72031;PMS5003;49185;42.320;23.198;2023-04-03T00:25:35;3.00;3.00;0.00
72031;PMS5003;49185;42.320;23.198;2023-04-03T00:28:01;1.00;1.00;0.00
72031;PMS5003;49185;42.320;23.198;2023-04-03T00:30:27;0.00;0.00;0.00
72031;PMS5003;49185;42.320;23.198;2023-04-03T00:32:52;0.00;0.00;0.00
72031;PMS5003;49185;42.320;23.198;2023-04-03T00:35:19;1.00;1.00;0.00
72031;PMS5003;49185;42.320;23.198;2023-04-03T00:37:46;3.00;3.00;0.00
72031;PMS5003;49185;42.320;23.198;2023-04-03T00:40:12;2.75;2.00;0.00
72031;PMS5003;49185;42.320;23.198;2023-04-03T00:42:40;2.00;2.00;0.00
72031;PMS5003;49185;42.320;23.198;2023-04-03T00:47:35;0.00;0.00;0.00
72031;PMS5003;49185;42.320;23.198;2023-04-03T00:50:01;0.00;0.00;0.00
72031;PMS5003;49185;42.320;23.198;2023-04-03T00:52:28;0.00;0.00;0.00
72031;PMS5003;49185;42.320;23.198;2023-04-03T00:54:57;0.00;0.00;0.00
72031;PMS5003;49185;42.320;23.198;2023-04-03T00:57:27;2.00;1.00;0.00
72031;PMS5003;49185;42.320;23.198;2023-04-03T00:59:55;2.75;1.25;0.00
72031;PMS5003;49185;42.320;23.198;2023-04-03T01:02:33;2.50;1.75;0.00
72031;PMS5003;49185;42.320;23.198;2023-04-03T01:04:58;4.00;3.00;0.00
72031;PMS5003;49185;42.320;23.198;2023-04-03T01:07:26;3.00;3.00;1.00
72031;PMS5003;49185;42.320;23.198;2023-04-03T01:09:59;3.00;3.00;1.00
72031;PMS5003;49185;42.320;23.198;2023-04-03T01:12:31;2.00;2.00;0.00
72031;PMS5003;49185;42.320;23.198;2023-04-03T01:15:04;2.75;2.75;0.00
72031;PMS5003;49185;42.320;23.198;2023-04-03T01:28:06;2.00;1.00;1.00
72031;PMS5003;49185;42.320;23.198;2023-04-03T01:30:35;3.00;2.00;1.00
72031;PMS5003;49185;42.320;23.198;2023-04-03T01:33:07;4.00;4.00;0.00
72031;PMS5003;49185;42.320;23.198;2023-04-03T01:35:33;4.00;4.00;0.00
72031;PMS5003;49185;42.320;23.198;2023-04-03T01:37:58;1.00;1.00;0.00
72031;PMS5003;49185;42.320;23.198;2023-04-03T01:40:24;1.00;1.00;0.00
72031;PMS5003;49185;42.320;23.198;2023-04-03T01:42:50;0.00;0.00;0.00
72031;PMS5003;49185;42.320;23.198;2023-04-03T01:45:15;0.00;0.00;0.00
72031;PMS5003;49185;42.320;23.198;2023-04-03T01:47:40;0.00;0.00;0.00
72031;PMS5003;49185;42.320;23.198;2023-04-03T01:50:06;0.00;0.00;0.00
72031;PMS5003;49185;42.320;23.198;2023-04-03T01:52:32;0.00;0.00;0.00
72031;PMS5003;49185;42.320;23.198;2023-04-03T01:54:57;0.00;0.00;0.00
72031;PMS5003;49185;42.320;23.198;2023-04-03T01:57:22;0.00;0.00;0.00
72031;PMS5003;49185;42.320;23.198;2023-04-03T01:59:48;0.00;0.00;0.00
72031;PMS5003;49185;42.320;23.198;2023-04-03T02:02:13;0.67;0.00;0.00
72031;PMS5003;49185;42.320;23.198;2023-04-03T02:04:38;1.00;0.00;0.00
72031;PMS5003;49185;42.320;23.198;2023-04-03T02:07:04;2.00;1.00;0.00
72031;PMS5003;49185;42.320;23.198;2023-04-03T02:09:29;1.00;1.00;0.00
72031;PMS5003;49185;42.320;23.198;2023-04-03T02:11:55;2.00;2.00;0.00
72031;PMS5003;49185;42.320;23.198;2023-04-03T02:14:20;2.00;2.00;0.00
72031;PMS5003;49185;42.320;23.198;2023-04-03T02:16:45;3.00;3.00;0.00
72031;PMS5003;49185;42.320;23.198;2023-04-03T02:19:11;1.00;1.00;0.00
72031;PMS5003;49185;42.320;23.198;2023-04-03T02:21:36;2.00;1.00;0.00
72031;PMS5003;49185;42.320;23.198;2023-04-03T02:24:02;1.00;1.00;0.00
72031;PMS5003;49185;42.320;23.198;2023-04-03T02:26:27;2.00;2.00;0.00
72031;PMS5003;49185;42.320;23.198;2023-04-03T02:28:53;1.00;1.00;0.00
72031;PMS5003;49185;42.320;23.198;2023-04-03T02:31:18;1.00;1.00;0.00
72031;PMS5003;49185;42.320;23.198;2023-04-03T02:33:44;0.00;0.00;0.00
72031;PMS5003;49185;42.320;23.198;2023-04-03T02:36:09;0.00;0.00;0.00
72031;PMS5003;49185;42.320;23.198;2023-04-03T02:38:35;0.00;0.00;0.00
72031;PMS5003;49185;42.320;23.198;2023-04-03T02:41:02;0.00;0.00;0.00
72031;PMS5003;49185;42.320;23.198;2023-04-03T02:43:29;0.00;0.00;0.00
72031;PMS5003;49185;42.320;23.198;2023-04-03T02:45:54;2.00;0.00;0.00
72031;PMS5003;49185;42.320;23.198;2023-04-03T02:48:20;2.00;0.00;0.00
72031;PMS5003;49185;42.320;23.198;2023-04-03T02:50:46;1.00;0.00;0.00
72031;PMS5003;49185;42.320;23.198;2023-04-03T02:53:12;0.00;0.00;0.00
72031;PMS5003;49185;42.320;23.198;2023-04-03T02:55:37;0.00;0.00;0.00
72031;PMS5003;49185;42.320;23.198;2023-04-03T02:58:03;1.33;1.00;0.00
72031;PMS5003;49185;42.320;23.198;2023-04-03T03:00:28;4.00;4.00;0.00
72031;PMS5003;49185;42.320;23.198;2023-04-03T03:02:54;2.00;2.00;0.00
72031;PMS5003;49185;42.320;23.198;2023-04-03T03:05:20;1.00;1.00;0.00
72031;PMS5003;49185;42.320;23.198;2023-04-03T03:07:45;1.00;1.00;0.00
72031;PMS5003;49185;42.320;23.198;2023-04-03T03:10:10;1.00;1.00;0.00
72031;PMS5003;49185;42.320;23.198;2023-04-03T03:12:36;1.67;1.67;0.00
72031;PMS5003;49185;42.320;23.198;2023-04-03T03:15:01;3.00;3.00;0.00
72031;PMS5003;49185;42.320;23.198;2023-04-03T03:17:27;8.00;6.67;4.00
72031;PMS5003;49185;42.320;23.198;2023-04-03T03:19:52;3.33;3.33;2.33
72031;PMS5003;49185;42.320;23.198;2023-04-03T03:22:18;1.00;1.00;0.00
72031;PMS5003;49185;42.320;23.198;2023-04-03T03:24:43;1.00;1.00;0.00
72031;PMS5003;49185;42.320;23.198;2023-04-03T03:27:08;1.00;1.00;0.00
72031;PMS5003;49185;42.320;23.198;2023-04-03T03:29:34;0.00;0.00;0.00
72031;PMS5003;49185;42.320;23.198;2023-04-03T03:31:59;0.00;0.00;0.00
72031;PMS5003;49185;42.320;23.198;2023-04-03T03:34:25;0.00;0.00;0.00
72031;PMS5003;49185;42.320;23.198;2023-04-03T03:36:50;1.00;1.00;0.00
72031;PMS5003;49185;42.320;23.198;2023-04-03T03:39:15;3.00;2.00;0.00
72031;PMS5003;49185;42.320;23.198;2023-04-03T03:41:41;5.00;4.75;0.00
72031;PMS5003;49185;42.320;23.198;2023-04-03T03:44:07;4.00;4.00;2.00
72031;PMS5003;49185;42.320;23.198;2023-04-03T03:46:32;6.33;6.33;2.33
72031;PMS5003;49185;42.320;23.198;2023-04-03T03:48:58;8.33;7.00;4.00
72031;PMS5003;49185;42.320;23.198;2023-04-03T03:51:23;6.33;6.00;4.00
72031;PMS5003;49185;42.320;23.198;2023-04-03T03:53:48;3.00;2.33;1.00
72031;PMS5003;49185;42.320;23.198;2023-04-03T03:56:14;3.00;3.00;1.00
72031;PMS5003;49185;42.320;23.198;2023-04-03T03:58:40;2.00;1.00;0.00
72031;PMS5003;49185;42.320;23.198;2023-04-03T04:01:05;1.33;1.00;0.00
72031;PMS5003;49185;42.320;23.198;2023-04-03T04:03:31;0.00;0.00;0.00
72031;PMS5003;49185;42.320;23.198;2023-04-03T04:05:57;1.00;1.00;0.00
72031;PMS5003;49185;42.320;23.198;2023-04-03T04:08:23;2.00;1.00;0.00
72031;PMS5003;49185;42.320;23.198;2023-04-03T04:10:49;3.00;3.00;0.00
72031;PMS5003;49185;42.320;23.198;2023-04-03T04:13:14;2.00;1.00;0.00
72031;PMS5003;49185;42.320;23.198;2023-04-03T04:15:41;3.75;3.25;0.00
72031;PMS5003;49185;42.320;23.198;2023-04-03T04:18:07;5.00;4.00;0.00
72031;PMS5003;49185;42.320;23.198;2023-04-03T04:20:33;11.33;10.33;4.67
72031;PMS5003;49185;42.320;23.198;2023-04-03T04:22:58;16.00;14.00;6.00
72031;PMS5003;49185;42.320;23.198;2023-04-03T04:25:24;14.00;14.00;4.00
72031;PMS5003;49185;42.320;23.198;2023-04-03T04:27:49;19.33;18.33;8.67
72031;PMS5003;49185;42.320;23.198;2023-04-03T04:30:15;18.00;18.00;9.00
72031;PMS5003;49185;42.320;23.198;2023-04-03T04:32:41;19.75;17.00;8.25
72031;PMS5003;49185;42.320;23.198;2023-04-03T04:35:06;18.00;17.00;9.00
72031;PMS5003;49185;42.320;23.198;2023-04-03T04:37:32;20.25;19.50;9.50
72031;PMS5003;49185;42.320;23.198;2023-04-03T04:39:58;25.50;24.25;14.50
72031;PMS5003;49185;42.320;23.198;2023-04-03T04:42:23;34.00;28.33;17.00
72031;PMS5003;49185;42.320;23.198;2023-04-03T04:44:49;38.00;29.33;18.00
72031;PMS5003;49185;42.320;23.198;2023-04-03T04:47:14;34.33;29.33;18.00
72031;PMS5003;49185;42.320;23.198;2023-04-03T04:49:40;27.33;25.00;16.00
72031;PMS5003;49185;42.320;23.198;2023-04-03T04:52:05;20.00;19.00;13.00
72031;PMS5003;49185;42.320;23.198;2023-04-03T04:54:30;37.33;31.00;19.33
72031;PMS5003;49185;42.320;23.198;2023-04-03T04:56:56;42.33;35.00;22.00
72031;PMS5003;49185;42.320;23.198;2023-04-03T04:59:21;42.67;36.00;23.00
72031;PMS5003;49185;42.320;23.198;2023-04-03T05:01:47;45.67;36.33;23.00
72031;PMS5003;49185;42.320;23.198;2023-04-03T05:04:12;43.00;36.00;23.33
72031;PMS5003;49185;42.320;23.198;2023-04-03T05:06:38;42.33;35.00;23.00
72031;PMS5003;49185;42.320;23.198;2023-04-03T05:09:03;44.00;35.33;23.00
72031;PMS5003;49185;42.320;23.198;2023-04-03T05:11:29;42.00;34.00;22.00
72031;PMS5003;49185;42.320;23.198;2023-04-03T05:13:55;44.25;35.50;23.75
72031;PMS5003;49185;42.320;23.198;2023-04-03T05:16:20;45.75;36.75;24.00
72031;PMS5003;49185;42.320;23.198;2023-04-03T05:18:46;46.33;36.33;23.00
72031;PMS5003;49185;42.320;23.198;2023-04-03T05:21:11;43.00;35.00;22.00
72031;PMS5003;49185;42.320;23.198;2023-04-03T05:23:37;45.33;36.33;23.00
72031;PMS5003;49185;42.320;23.198;2023-04-03T05:26:02;47.33;37.33;24.00
72031;PMS5003;49185;42.320;23.198;2023-04-03T05:28:28;44.75;36.50;23.00
72031;PMS5003;49185;42.320;23.198;2023-04-03T05:30:55;44.00;35.33;23.00
72031;PMS5003;49185;42.320;23.198;2023-04-03T05:33:21;48.00;39.75;25.50
72031;PMS5003;49185;42.320;23.198;2023-04-03T05:35:47;49.50;40.25;25.50
72031;PMS5003;49185;42.320;23.198;2023-04-03T05:38:12;41.67;34.00;22.00
72031;PMS5003;49185;42.320;23.198;2023-04-03T05:40:38;35.00;30.00;20.00
72031;PMS5003;49185;42.320;23.198;2023-04-03T05:43:04;30.00;26.00;19.00
72031;PMS5003;49185;42.320;23.198;2023-04-03T05:45:29;26.33;25.00;17.00
72031;PMS5003;49185;42.320;23.198;2023-04-03T05:47:55;30.67;27.33;18.00
72031;PMS5003;49185;42.320;23.198;2023-04-03T05:50:20;26.67;25.33;17.00
72031;PMS5003;49185;42.320;23.198;2023-04-03T05:52:46;22.00;20.00;16.00
72031;PMS5003;49185;42.320;23.198;2023-04-03T05:55:15;23.00;19.50;14.00
72031;PMS5003;49185;42.320;23.198;2023-04-03T05:57:40;21.75;19.00;13.00
72031;PMS5003;49185;42.320;23.198;2023-04-03T06:00:07;26.25;25.75;16.00
72031;PMS5003;49185;42.320;23.198;2023-04-03T06:02:33;20.25;19.50;12.75
72031;PMS5003;49185;42.320;23.198;2023-04-03T06:04:59;17.67;16.67;7.00
72031;PMS5003;49185;42.320;23.198;2023-04-03T06:07:26;17.00;16.00;7.00
72031;PMS5003;49185;42.320;23.198;2023-04-03T06:09:52;17.75;17.75;8.00
72031;PMS5003;49185;42.320;23.198;2023-04-03T06:12:17;14.33;14.33;6.00
72031;PMS5003;49185;42.320;23.198;2023-04-03T06:14:43;15.50;14.50;7.50
72031;PMS5003;49185;42.320;23.198;2023-04-03T06:17:09;16.00;16.00;9.33
72031;PMS5003;49185;42.320;23.198;2023-04-03T06:19:35;20.25;20.00;11.50
72031;PMS5003;49185;42.320;23.198;2023-04-03T06:22:01;30.25;26.25;18.00
72031;PMS5003;49185;42.320;23.198;2023-04-03T06:24:28;35.75;29.00;19.00
72031;PMS5003;49185;42.320;23.198;2023-04-03T06:26:54;35.00;29.50;19.00
72031;PMS5003;49185;42.320;23.198;2023-04-03T06:29:19;31.00;28.00;19.00
72031;PMS5003;49185;42.320;23.198;2023-04-03T06:31:45;24.00;23.00;17.00
72031;PMS5003;49185;42.320;23.198;2023-04-03T06:34:11;24.75;23.75;15.75
72031;PMS5003;49185;42.320;23.198;2023-04-03T06:36:38;23.50;23.50;15.50
72031;PMS5003;49185;42.320;23.198;2023-04-03T06:39:04;22.50;22.50;14.50
72031;PMS5003;49185;42.320;23.198;2023-04-03T06:41:30;24.50;24.00;16.50
72031;PMS5003;49185;42.320;23.198;2023-04-03T06:43:56;26.00;26.00;17.00
72031;PMS5003;49185;42.320;23.198;2023-04-03T06:46:23;26.00;25.75;17.00
72031;PMS5003;49185;42.320;23.198;2023-04-03T06:48:50;25.25;24.75;16.00
72031;PMS5003;49185;42.320;23.198;2023-04-03T06:51:17;26.00;24.50;16.50
72031;PMS5003;49185;42.320;23.198;2023-04-03T06:53:44;26.00;25.00;17.50
72031;PMS5003;49185;42.320;23.198;2023-04-03T06:56:11;25.00;25.00;16.50
72031;PMS5003;49185;42.320;23.198;2023-04-03T06:58:36;27.00;26.50;17.50
72031;PMS5003;49185;42.320;23.198;2023-04-03T07:01:02;19.67;19.67;13.33
72031;PMS5003;49185;42.320;23.198;2023-04-03T07:03:27;11.67;11.67;4.33
72031;PMS5003;49185;42.320;23.198;2023-04-03T07:05:53;6.00;6.00;2.00
72031;PMS5003;49185;42.320;23.198;2023-04-03T07:08:18;6.00;6.00;3.00
72031;PMS5003;49185;42.320;23.198;2023-04-03T07:10:43;6.00;4.67;2.33
72031;PMS5003;49185;42.320;23.198;2023-04-03T07:13:09;4.00;4.00;2.00
72031;PMS5003;49185;42.320;23.198;2023-04-03T07:15:34;6.00;6.00;2.00
72031;PMS5003;49185;42.320;23.198;2023-04-03T07:18:00;4.67;4.00;2.00
72031;PMS5003;49185;42.320;23.198;2023-04-03T07:20:25;5.00;4.00;1.00
72031;PMS5003;49185;42.320;23.198;2023-04-03T07:22:51;8.00;7.00;3.33
72031;PMS5003;49185;42.320;23.198;2023-04-03T07:25:16;6.67;6.00;2.67
72031;PMS5003;49185;42.320;23.198;2023-04-03T07:27:42;5.00;5.00;2.00
72031;PMS5003;49185;42.320;23.198;2023-04-03T07:30:07;3.33;2.33;2.00
72031;PMS5003;49185;42.320;23.198;2023-04-03T07:32:33;3.25;3.00;2.00
72031;PMS5003;49185;42.320;23.198;2023-04-03T07:34:58;2.00;2.00;1.00
72031;PMS5003;49185;42.320;23.198;2023-04-03T07:37:24;7.67;6.67;2.33
72031;PMS5003;49185;42.320;23.198;2023-04-03T07:39:49;6.67;6.67;3.00
72031;PMS5003;49185;42.320;23.198;2023-04-03T07:42:15;4.00;4.00;1.00
72031;PMS5003;49185;42.320;23.198;2023-04-03T07:44:40;3.67;2.67;0.00
72031;PMS5003;49185;42.320;23.198;2023-04-03T07:47:05;2.00;1.00;0.00
72031;PMS5003;49185;42.320;23.198;2023-04-03T07:49:31;1.00;1.00;0.00
72031;PMS5003;49185;42.320;23.198;2023-04-03T07:51:56;3.00;3.00;0.00
72031;PMS5003;49185;42.320;23.198;2023-04-03T07:54:21;2.00;2.00;0.00
72031;PMS5003;49185;42.320;23.198;2023-04-03T07:56:47;3.00;3.00;0.00
72031;PMS5003;49185;42.320;23.198;2023-04-03T07:59:12;4.00;4.00;0.33
72031;PMS5003;49185;42.320;23.198;2023-04-03T08:01:38;3.33;3.00;1.00
72031;PMS5003;49185;42.320;23.198;2023-04-03T08:04:03;5.00;5.00;2.00
72031;PMS5003;49185;42.320;23.198;2023-04-03T08:06:30;4.00;4.00;2.00
72031;PMS5003;49185;42.320;23.198;2023-04-03T08:08:56;3.00;2.00;1.00
72031;PMS5003;49185;42.320;23.198;2023-04-03T08:11:21;2.00;1.00;0.00
72031;PMS5003;49185;42.320;23.198;2023-04-03T08:13:47;1.00;0.00;0.00
72031;PMS5003;49185;42.320;23.198;2023-04-03T08:16:14;2.33;2.33;0.00
72031;PMS5003;49185;42.320;23.198;2023-04-03T08:18:42;2.75;2.75;0.00
72031;PMS5003;49185;42.320;23.198;2023-04-03T08:21:11;2.00;2.00;0.00
72031;PMS5003;49185;42.320;23.198;2023-04-03T08:23:37;2.50;2.50;0.00
72031;PMS5003;49185;42.320;23.198;2023-04-03T08:26:13;4.00;4.00;0.00
72031;PMS5003;49185;42.320;23.198;2023-04-03T08:28:40;4.00;4.00;1.00
72031;PMS5003;49185;42.320;23.198;2023-04-03T08:31:06;3.33;3.33;1.00
72031;PMS5003;49185;42.320;23.198;2023-04-03T08:33:34;2.25;2.00;1.00
72031;PMS5003;49185;42.320;23.198;2023-04-03T08:36:00;3.00;2.00;0.00
72031;PMS5003;49185;42.320;23.198;2023-04-03T08:38:25;2.00;2.00;0.00
72031;PMS5003;49185;42.320;23.198;2023-04-03T08:43:37;10.00;10.00;7.75
72031;PMS5003;49185;42.320;23.198;2023-04-03T08:46:28;3.00;3.00;2.00
72031;PMS5003;49185;42.320;23.198;2023-04-03T08:49:07;2.00;2.00;1.00
72031;PMS5003;49185;42.320;23.198;2023-04-03T08:51:40;3.25;2.25;1.00
72031;PMS5003;49185;42.320;23.198;2023-04-03T08:54:16;6.50;4.00;1.50
72031;PMS5003;49185;42.320;23.198;2023-04-03T08:56:50;8.00;7.00;2.00
72031;PMS5003;49185;42.320;23.198;2023-04-03T08:59:17;5.00;5.00;1.00
72031;PMS5003;49185;42.320;23.198;2023-04-03T09:01:49;4.00;3.50;1.00
72031;PMS5003;49185;42.320;23.198;2023-04-03T09:04:15;2.00;2.00;1.00
72031;PMS5003;49185;42.320;23.198;2023-04-03T09:06:49;4.00;3.25;1.00
72031;PMS5003;49185;42.320;23.198;2023-04-03T09:09:35;3.00;2.50;0.00
72031;PMS5003;49185;42.320;23.198;2023-04-03T09:14:57;6.00;6.00;1.00
72031;PMS5003;49185;42.320;23.198;2023-04-03T09:17:41;7.50;6.00;2.00
72031;PMS5003;49185;42.320;23.198;2023-04-03T09:22:47;15.00;12.50;6.00
72031;PMS5003;49185;42.320;23.198;2023-04-03T09:25:13;14.00;14.00;5.00
72031;PMS5003;49185;42.320;23.198;2023-04-03T09:27:42;5.50;5.25;2.00
72031;PMS5003;49185;42.320;23.198;2023-04-03T09:30:12;8.75;8.00;4.25
72031;PMS5003;49185;42.320;23.198;2023-04-03T09:32:43;6.25;6.00;2.00
72031;PMS5003;49185;42.320;23.198;2023-04-03T09:35:16;10.25;9.00;4.00
72031;PMS5003;49185;42.320;23.198;2023-04-03T09:37:45;8.00;6.50;2.75
72031;PMS5003;49185;42.320;23.198;2023-04-03T09:40:34;8.00;7.00;4.00
72031;PMS5003;49185;42.320;23.198;2023-04-03T09:43:19;9.00;9.00;3.75
72031;PMS5003;49185;42.320;23.198;2023-04-03T09:45:47;10.25;9.75;4.25
72031;PMS5003;49185;42.320;23.198;2023-04-03T09:50:56;23.00;19.00;11.00
72031;PMS5003;49185;42.320;23.198;2023-04-03T09:53:27;15.00;12.00;4.25
72031;PMS5003;49185;42.320;23.198;2023-04-03T09:55:55;10.50;8.25;4.75
72031;PMS5003;49185;42.320;23.198;2023-04-03T09:58:26;7.50;6.00;4.00
72031;PMS5003;49185;42.320;23.198;2023-04-03T10:01:01;4.00;4.00;2.00
72031;PMS5003;49185;42.320;23.198;2023-04-03T10:03:32;4.50;4.00;2.00
72031;PMS5003;49185;42.320;23.198;2023-04-03T10:06:00;4.75;4.75;2.00
72031;PMS5003;49185;42.320;23.198;2023-04-03T10:08:33;6.00;5.00;3.00
72031;PMS5003;49185;42.320;23.198;2023-04-03T10:13:34;11.25;10.25;5.00
72031;PMS5003;49185;42.320;23.198;2023-04-03T10:16:01;10.67;6.67;4.00
72031;PMS5003;49185;42.320;23.198;2023-04-03T10:21:14;4.00;4.00;2.75
72031;PMS5003;49185;42.320;23.198;2023-04-03T10:23:44;4.00;4.00;3.00
72031;PMS5003;49185;42.320;23.198;2023-04-03T10:29:04;4.75;4.75;1.00
72031;PMS5003;49185;42.320;23.198;2023-04-03T10:34:45;4.75;4.75;0.00
72031;PMS5003;49185;42.320;23.198;2023-04-03T10:58:02;5.00;5.00;2.75
72031;PMS5003;49185;42.320;23.198;2023-04-03T11:00:40;6.75;6.50;3.00
72031;PMS5003;49185;42.320;23.198;2023-04-03T11:03:11;7.00;7.00;4.00
72031;PMS5003;49185;42.320;23.198;2023-04-03T11:05:42;8.00;8.00;4.00
72031;PMS5003;49185;42.320;23.198;2023-04-03T11:08:16;8.00;8.00;4.00
72031;PMS5003;49185;42.320;23.198;2023-04-03T11:11:05;8.25;7.00;2.00
72031;PMS5003;49185;42.320;23.198;2023-04-03T11:13:35;6.75;6.00;2.00
72031;PMS5003;49185;42.320;23.198;2023-04-03T11:16:08;5.25;5.25;2.00
72031;PMS5003;49185;42.320;23.198;2023-04-03T11:18:43;5.00;4.00;3.00
72031;PMS5003;49185;42.320;23.198;2023-04-03T11:21:23;4.00;4.00;3.00
72031;PMS5003;49185;42.320;23.198;2023-04-03T11:23:54;5.00;4.00;3.00
72031;PMS5003;49185;42.320;23.198;2023-04-03T11:26:22;5.00;5.00;2.00
72031;PMS5003;49185;42.320;23.198;2023-04-03T11:28:53;4.75;4.75;2.00
72031;PMS5003;49185;42.320;23.198;2023-04-03T11:31:29;7.75;7.75;2.75
72031;PMS5003;49185;42.320;23.198;2023-04-03T11:34:21;6.00;6.00;3.00
72031;PMS5003;49185;42.320;23.198;2023-04-03T11:36:58;10.00;9.00;6.00
72031;PMS5003;49185;42.320;23.198;2023-04-03T11:41:55;7.00;7.00;3.75
72031;PMS5003;49185;42.320;23.198;2023-04-03T11:44:39;5.50;5.50;3.50
72031;PMS5003;49185;42.320;23.198;2023-04-03T11:47:06;5.00;5.00;3.00
72031;PMS5003;49185;42.320;23.198;2023-04-03T11:55:35;6.00;5.00;3.00
72031;PMS5003;49185;42.320;23.198;2023-04-03T12:05:50;8.00;7.75;3.75
72031;PMS5003;49185;42.320;23.198;2023-04-03T12:08:29;15.00;13.75;7.00
72031;PMS5003;49185;42.320;23.198;2023-04-03T12:13:40;6.25;6.25;4.00
72031;PMS5003;49185;42.320;23.198;2023-04-03T12:43:24;3.50;3.00;1.00
72031;PMS5003;49185;42.320;23.198;2023-04-03T12:48:29;3.00;3.00;2.00
72031;PMS5003;49185;42.320;23.198;2023-04-03T12:50:57;4.00;4.00;2.00
72031;PMS5003;49185;42.320;23.198;2023-04-03T12:53:28;2.00;2.00;1.00
72031;PMS5003;49185;42.320;23.198;2023-04-03T12:56:18;3.00;3.00;1.25
72031;PMS5003;49185;42.320;23.198;2023-04-03T12:58:48;1.00;1.00;1.00
72031;PMS5003;49185;42.320;23.198;2023-04-03T13:01:16;2.50;2.25;1.00
72031;PMS5003;49185;42.320;23.198;2023-04-03T13:03:44;4.00;3.00;1.00
72031;PMS5003;49185;42.320;23.198;2023-04-03T13:06:38;3.00;3.00;1.00
72031;PMS5003;49185;42.320;23.198;2023-04-03T13:09:13;3.00;3.00;1.00
72031;PMS5003;49185;42.320;23.198;2023-04-03T13:11:45;2.00;2.00;0.00
72031;PMS5003;49185;42.320;23.198;2023-04-03T13:14:18;1.67;1.67;0.00
72031;PMS5003;49185;42.320;23.198;2023-04-03T13:16:56;4.00;2.00;0.00
72031;PMS5003;49185;42.320;23.198;2023-04-03T13:19:41;11.00;11.00;5.25
72031;PMS5003;49185;42.320;23.198;2023-04-03T13:22:14;20.50;18.50;7.75
72031;PMS5003;49185;42.320;23.198;2023-04-03T13:25:01;18.00;17.00;6.00
72031;PMS5003;49185;42.320;23.198;2023-04-03T13:27:32;14.50;13.50;4.50
72031;PMS5003;49185;42.320;23.198;2023-04-03T13:29:58;8.50;7.00;4.00
72031;PMS5003;49185;42.320;23.198;2023-04-03T13:32:28;6.00;6.00;3.00
72031;PMS5003;49185;42.320;23.198;2023-04-03T13:34:55;6.00;6.00;2.00
72031;PMS5003;49185;42.320;23.198;2023-04-03T13:40:00;9.50;8.25;5.00
72031;PMS5003;49185;42.320;23.198;2023-04-03T13:42:27;6.00;5.00;2.00
72031;PMS5003;49185;42.320;23.198;2023-04-03T13:45:18;7.00;7.00;3.25
72031;PMS5003;49185;42.320;23.198;2023-04-03T13:47:44;7.00;7.00;4.00
72031;PMS5003;49185;42.320;23.198;2023-04-03T13:52:40;6.00;6.00;2.00
72031;PMS5003;49185;42.320;23.198;2023-04-03T13:57:49;7.00;7.00;4.00
72031;PMS5003;49185;42.320;23.198;2023-04-03T14:00:31;8.75;8.50;5.00
72031;PMS5003;49185;42.320;23.198;2023-04-03T14:05:53;5.00;5.00;3.00
72031;PMS5003;49185;42.320;23.198;2023-04-03T14:08:19;5.00;5.00;3.00
72031;PMS5003;49185;42.320;23.198;2023-04-03T14:10:45;5.67;5.67;3.00
72031;PMS5003;49185;42.320;23.198;2023-04-03T14:13:13;4.00;3.25;2.00
72031;PMS5003;49185;42.320;23.198;2023-04-03T14:15:40;3.25;2.75;2.00
72031;PMS5003;49185;42.320;23.198;2023-04-03T14:18:05;3.00;3.00;1.00
72031;PMS5003;49185;42.320;23.198;2023-04-03T14:20:31;4.00;3.33;2.00
72031;PMS5003;49185;42.320;23.198;2023-04-03T14:22:56;3.67;2.00;1.00
72031;PMS5003;49185;42.320;23.198;2023-04-03T14:25:22;2.00;2.00;1.00
72031;PMS5003;49185;42.320;23.198;2023-04-03T14:27:49;3.00;3.00;1.00
72031;PMS5003;49185;42.320;23.198;2023-04-03T14:30:24;2.00;2.00;1.00
72031;PMS5003;49185;42.320;23.198;2023-04-03T14:32:57;2.25;2.00;1.00
72031;PMS5003;49185;42.320;23.198;2023-04-03T14:35:23;2.00;2.00;0.00
72031;PMS5003;49185;42.320;23.198;2023-04-03T14:37:50;5.25;4.75;0.00
72031;PMS5003;49185;42.320;23.198;2023-04-03T14:40:18;3.00;3.00;1.00
72031;PMS5003;49185;42.320;23.198;2023-04-03T14:42:48;3.50;3.50;1.00
72031;PMS5003;49185;42.320;23.198;2023-04-03T14:45:14;6.00;6.00;1.00
72031;PMS5003;49185;42.320;23.198;2023-04-03T14:47:45;4.00;4.00;0.25
72031;PMS5003;49185;42.320;23.198;2023-04-03T14:50:15;3.00;3.00;0.25
72031;PMS5003;49185;42.320;23.198;2023-04-03T14:52:43;2.50;2.00;0.00
72031;PMS5003;49185;42.320;23.198;2023-04-03T14:55:12;2.00;2.00;0.00
72031;PMS5003;49185;42.320;23.198;2023-04-03T14:57:40;2.75;2.75;0.00
72031;PMS5003;49185;42.320;23.198;2023-04-03T15:00:07;1.00;1.00;0.00
72031;PMS5003;49185;42.320;23.198;2023-04-03T15:02:38;3.50;3.25;1.00
72031;PMS5003;49185;42.320;23.198;2023-04-03T15:05:05;5.00;5.00;1.00
72031;PMS5003;49185;42.320;23.198;2023-04-03T15:07:34;5.00;5.00;2.50
72031;PMS5003;49185;42.320;23.198;2023-04-03T15:12:41;3.00;2.00;0.00
72031;PMS5003;49185;42.320;23.198;2023-04-03T15:15:08;3.75;2.00;0.00
72031;PMS5003;49185;42.320;23.198;2023-04-03T15:17:34;4.00;4.00;0.00
72031;PMS5003;49185;42.320;23.198;2023-04-03T15:20:00;4.25;3.25;0.00
72031;PMS5003;49185;42.320;23.198;2023-04-03T15:22:27;4.00;4.00;0.00
72031;PMS5003;49185;42.320;23.198;2023-04-03T15:24:53;2.00;1.00;0.00
72031;PMS5003;49185;42.320;23.198;2023-04-03T15:27:18;6.33;6.33;2.33
72031;PMS5003;49185;42.320;23.198;2023-04-03T15:29:44;6.00;6.00;3.00
72031;PMS5003;49185;42.320;23.198;2023-04-03T15:32:10;5.75;4.75;2.00
72031;PMS5003;49185;42.320;23.198;2023-04-03T15:34:37;1.00;1.00;1.00
72031;PMS5003;49185;42.320;23.198;2023-04-03T15:37:03;3.00;2.00;1.00
72031;PMS5003;49185;42.320;23.198;2023-04-03T15:39:28;4.00;4.00;1.25
72031;PMS5003;49185;42.320;23.198;2023-04-03T15:41:54;5.33;5.33;3.00
72031;PMS5003;49185;42.320;23.198;2023-04-03T15:44:20;5.00;3.00;1.00
72031;PMS5003;49185;42.320;23.198;2023-04-03T15:46:46;4.00;3.75;0.00
72031;PMS5003;49185;42.320;23.198;2023-04-03T15:49:13;5.25;4.00;1.00
72031;PMS5003;49185;42.320;23.198;2023-04-03T15:51:38;5.33;5.00;1.00
72031;PMS5003;49185;42.320;23.198;2023-04-03T15:54:04;4.33;4.00;0.00
72031;PMS5003;49185;42.320;23.198;2023-04-03T15:56:29;3.00;2.00;0.00
72031;PMS5003;49185;42.320;23.198;2023-04-03T15:58:55;2.67;1.67;0.00
72031;PMS5003;49185;42.320;23.198;2023-04-03T16:01:20;3.00;3.00;0.00
72031;PMS5003;49185;42.320;23.198;2023-04-03T16:03:46;3.00;3.00;0.00